createdAt,value
2017-07-09T00:02:09.431Z,68.90
2017-07-09T00:04:37.124Z,67.70
2017-07-09T00:07:04.729Z,68.20
2017-07-09T00:09:32.331Z,68.60
2017-07-09T00:12:01.185Z,68.20
2017-07-09T00:14:28.820Z,68.60
2017-07-09T00:16:56.386Z,69.30
2017-07-09T00:19:23.948Z,69.60
2017-07-09T00:21:51.555Z,69.40
2017-07-09T00:24:19.125Z,69.50
2017-07-09T00:26:47.454Z,69.20
2017-07-09T00:29:15.063Z,69.00
2017-07-09T00:31:43.440Z,71.10
2017-07-09T00:34:11.770Z,71.30
2017-07-09T00:36:39.375Z,71.20
2017-07-09T00:39:07.766Z,71.40
2017-07-09T00:41:35.518Z,71.30
2017-07-09T00:44:03.859Z,74.10
2017-07-09T00:46:31.470Z,74.00
2017-07-09T00:48:59.031Z,73.50
2017-07-09T00:51:26.596Z,73.40
2017-07-09T00:53:54.216Z,72.50
2017-07-09T00:56:22.543Z,73.70
2017-07-09T00:58:50.167Z,73.60
2017-07-09T01:01:18.504Z,73.10
2017-07-09T01:03:46.072Z,73.00
2017-07-09T01:06:13.686Z,72.40
2017-07-09T01:08:41.283Z,71.10
2017-07-09T01:11:08.872Z,70.20
2017-07-09T01:13:37.263Z,69.70
2017-07-09T01:16:04.879Z,69.50
2017-07-09T01:18:32.454Z,72.00
2017-07-09T01:21:00.026Z,73.30
2017-07-09T01:23:27.658Z,74.70
2017-07-09T01:25:55.237Z,73.50
2017-07-09T01:28:23.584Z,72.30
2017-07-09T01:30:51.195Z,72.30
2017-07-09T01:33:18.775Z,71.90
2017-07-09T01:35:47.222Z,72.00
2017-07-09T01:38:14.851Z,71.50
2017-07-09T01:40:42.442Z,71.20
2017-07-09T01:43:10.023Z,72.30
2017-07-09T01:45:37.635Z,74.00
2017-07-09T01:48:05.227Z,72.50
2017-07-09T01:50:32.839Z,74.30
2017-07-09T01:53:00.424Z,72.10
2017-07-09T01:55:27.958Z,73.70
2017-07-09T01:57:55.542Z,71.80
2017-07-09T02:00:23.870Z,72.80
2017-07-09T02:02:51.397Z,72.70
2017-07-09T02:05:18.985Z,72.30
2017-07-09T02:07:46.525Z,71.90
2017-07-09T02:10:14.091Z,73.30
2017-07-09T02:12:41.625Z,72.30
2017-07-09T02:15:09.201Z,73.60
2017-07-09T02:17:36.764Z,75.10
2017-07-09T02:20:04.307Z,73.10
2017-07-09T02:22:31.860Z,73.60
2017-07-09T02:24:59.384Z,71.60
2017-07-09T02:27:26.973Z,71.10
2017-07-09T02:29:54.509Z,70.40
2017-07-09T02:32:22.845Z,71.30
2017-07-09T02:34:50.456Z,71.20
2017-07-09T02:37:17.989Z,69.90
2017-07-09T02:39:45.520Z,69.60
2017-07-09T02:42:13.082Z,69.90
2017-07-09T02:44:40.661Z,68.80
2017-07-09T02:47:08.209Z,69.60
2017-07-09T02:49:35.745Z,68.40
2017-07-09T02:52:03.340Z,69.00
2017-07-09T02:54:30.869Z,68.40
2017-07-09T02:56:58.398Z,69.30
2017-07-09T02:59:25.962Z,69.70
2017-07-09T03:01:53.526Z,69.80
2017-07-09T03:04:21.117Z,68.90
2017-07-09T03:06:48.889Z,69.10
2017-07-09T03:09:16.672Z,68.90
2017-07-09T03:11:45.033Z,71.20
2017-07-09T03:14:13.455Z,70.10
2017-07-09T03:16:41.709Z,70.10
2017-07-09T03:19:10.071Z,69.00
2017-07-09T03:21:38.394Z,71.40
2017-07-09T03:24:05.958Z,71.30
2017-07-09T03:26:33.529Z,70.90
2017-07-09T03:29:01.074Z,71.60
2017-07-09T03:31:28.613Z,71.00
2017-07-09T03:33:56.202Z,72.70
2017-07-09T03:36:23.733Z,72.70
2017-07-09T03:38:51.309Z,72.50
2017-07-09T03:41:18.858Z,73.80
2017-07-09T03:43:46.392Z,73.90
2017-07-09T03:46:14.726Z,77.40
2017-07-09T03:48:42.274Z,77.40
2017-07-09T03:51:09.882Z,75.10
2017-07-09T03:53:37.530Z,76.00
2017-07-09T03:56:05.085Z,77.10
2017-07-09T03:58:33.374Z,76.80
2017-07-09T04:01:00.948Z,76.70
2017-07-09T04:03:28.507Z,76.70
2017-07-09T04:05:56.053Z,77.50
2017-07-09T04:08:23.622Z,78.70
2017-07-09T04:10:51.158Z,76.30
2017-07-09T04:13:19.489Z,78.20
2017-07-09T04:15:47.059Z,78.10
2017-07-09T04:18:14.605Z,78.40
2017-07-09T04:20:42.174Z,78.30
2017-07-09T04:23:09.708Z,80.50
2017-07-09T04:25:37.235Z,80.10
2017-07-09T04:28:04.822Z,81.00
2017-07-09T04:30:32.375Z,81.80
2017-07-09T04:32:59.916Z,80.10
2017-07-09T04:35:27.496Z,79.50
2017-07-09T04:37:55.028Z,77.10
2017-07-09T04:40:22.570Z,74.20
2017-07-09T04:42:50.170Z,73.80
2017-07-09T04:45:17.730Z,75.10
2017-07-09T04:47:46.131Z,76.80
2017-07-09T04:50:13.721Z,76.90
2017-07-09T04:52:41.282Z,75.80
2017-07-09T04:55:08.863Z,76.80
2017-07-09T04:57:36.442Z,75.60
2017-07-09T05:00:04.007Z,75.70
2017-07-09T05:02:31.766Z,74.30
2017-07-09T05:04:59.325Z,72.90
2017-07-09T05:07:26.937Z,72.80
2017-07-09T05:09:54.559Z,71.50
2017-07-09T05:12:22.165Z,72.40
2017-07-09T05:14:49.726Z,71.80
2017-07-09T05:17:17.326Z,70.50
2017-07-09T05:19:44.890Z,70.10
2017-07-09T05:22:12.485Z,69.60
2017-07-09T05:24:40.081Z,67.70
2017-07-09T05:27:07.676Z,67.90
2017-07-09T05:29:35.273Z,66.70
2017-07-09T05:32:02.895Z,67.00
2017-07-09T05:34:30.455Z,67.00
2017-07-09T05:36:58.046Z,66.30
2017-07-09T05:39:25.659Z,66.50
2017-07-09T05:41:53.308Z,66.50
2017-07-09T05:44:20.881Z,66.50
2017-07-09T05:46:48.493Z,67.50
2017-07-09T05:49:16.109Z,67.70
2017-07-09T05:51:43.661Z,68.10
2017-07-09T05:54:11.214Z,68.50
2017-07-09T05:56:38.959Z,68.90
2017-07-09T05:59:06.517Z,68.90
2017-07-09T06:01:34.061Z,69.30
2017-07-09T06:04:02.694Z,69.10
2017-07-09T06:06:31.034Z,70.00
2017-07-09T06:08:58.637Z,70.00
2017-07-09T06:11:26.954Z,69.50
2017-07-09T06:13:54.697Z,69.30
2017-07-09T06:16:22.301Z,69.40
2017-07-09T06:18:49.847Z,69.50
2017-07-09T06:21:17.453Z,69.70
2017-07-09T06:23:45.829Z,70.40
2017-07-09T06:26:14.170Z,70.80
2017-07-09T06:28:41.766Z,70.80
2017-07-09T06:31:10.073Z,71.20
2017-07-09T06:33:37.605Z,71.00
2017-07-09T06:36:05.980Z,71.70
2017-07-09T06:38:33.529Z,71.50
2017-07-09T06:41:01.858Z,72.70
2017-07-09T06:43:29.501Z,72.70
2017-07-09T06:45:57.045Z,73.20
2017-07-09T06:48:25.509Z,73.00
2017-07-09T06:50:53.852Z,75.20
2017-07-09T06:53:21.377Z,75.10
2017-07-09T06:55:48.912Z,75.90
2017-07-09T06:58:17.262Z,75.70
2017-07-09T07:00:45.676Z,75.60
2017-07-09T07:03:13.238Z,77.50
2017-07-09T07:05:40.849Z,78.50
2017-07-09T07:08:08.390Z,79.00
2017-07-09T07:10:35.944Z,79.80
2017-07-09T07:13:03.528Z,80.20
2017-07-09T07:15:31.297Z,81.60
2017-07-09T07:17:58.915Z,81.80
2017-07-09T07:20:26.461Z,82.00
2017-07-09T07:22:54.051Z,83.20
2017-07-09T07:25:21.598Z,83.00
2017-07-09T07:27:49.218Z,83.80
2017-07-09T07:30:16.808Z,84.70
2017-07-09T07:32:44.416Z,85.70
2017-07-09T07:35:12.009Z,86.60
2017-07-09T07:37:39.569Z,87.00
2017-07-09T07:40:07.236Z,87.90
2017-07-09T07:42:34.816Z,88.60
2017-07-09T07:45:02.383Z,89.30
2017-07-09T07:47:29.939Z,89.20
2017-07-09T07:49:57.639Z,90.30
2017-07-09T07:52:25.249Z,90.30
2017-07-09T07:54:52.825Z,90.20
2017-07-09T07:57:20.429Z,90.30
2017-07-09T07:59:47.996Z,90.00
2017-07-09T08:02:15.597Z,90.60
2017-07-09T08:04:43.361Z,90.60
2017-07-09T08:07:10.992Z,90.00
2017-07-09T08:09:38.611Z,88.80
2017-07-09T08:12:06.190Z,89.90
2017-07-09T08:14:33.775Z,90.40
2017-07-09T08:17:01.440Z,88.80
2017-07-09T08:19:29.045Z,87.30
2017-07-09T08:21:56.746Z,89.70
2017-07-09T08:24:24.317Z,88.40
2017-07-09T08:26:53.163Z,87.80
2017-07-09T08:29:20.843Z,88.20
2017-07-09T08:31:48.399Z,87.50
2017-07-09T08:34:17.986Z,86.60
2017-07-09T08:36:45.579Z,88.10
2017-07-09T08:39:13.189Z,87.90
2017-07-09T08:41:40.782Z,86.70
2017-07-09T08:44:08.362Z,88.30
2017-07-09T08:46:36.166Z,87.00
2017-07-09T08:49:03.758Z,87.20
2017-07-09T08:51:31.426Z,88.20
2017-07-09T08:53:59.943Z,87.20
2017-07-09T08:56:27.570Z,87.10
2017-07-09T08:58:55.206Z,85.60
2017-07-09T09:01:22.774Z,84.20
2017-07-09T09:03:50.355Z,84.60
2017-07-09T09:06:17.913Z,83.40
2017-07-09T09:08:45.461Z,82.50
2017-07-09T09:11:13.054Z,84.80
2017-07-09T09:13:40.618Z,84.60
2017-07-09T09:16:08.180Z,84.70
2017-07-09T09:18:35.757Z,81.30
2017-07-09T09:21:04.135Z,76.80
2017-07-09T09:23:31.668Z,76.70
2017-07-09T09:25:59.253Z,76.00
2017-07-09T09:28:26.857Z,76.10
2017-07-09T09:30:54.405Z,75.00
2017-07-09T09:33:22.003Z,74.80
2017-07-09T09:35:49.624Z,74.40
2017-07-09T09:38:17.201Z,74.70
2017-07-09T09:40:45.487Z,77.60
2017-07-09T09:43:13.113Z,74.70
2017-07-09T09:45:40.689Z,76.60
2017-07-09T09:48:08.229Z,76.70
2017-07-09T09:50:35.818Z,75.00
2017-07-09T09:53:03.382Z,74.60
2017-07-09T09:55:30.969Z,75.30
2017-07-09T09:57:59.318Z,73.00
2017-07-09T10:00:26.866Z,72.90
2017-07-09T10:02:54.453Z,75.40
2017-07-09T10:05:22.805Z,70.50
2017-07-09T10:07:50.349Z,71.00
2017-07-09T10:10:17.909Z,69.10
2017-07-09T10:12:45.456Z,70.00
2017-07-09T10:15:13.018Z,71.60
2017-07-09T10:17:40.609Z,69.90
2017-07-09T10:20:08.143Z,68.90
2017-07-09T10:22:35.685Z,66.10
2017-07-09T10:25:03.256Z,67.80
2017-07-09T10:27:30.802Z,69.90
2017-07-09T10:29:58.425Z,71.40
2017-07-09T10:32:26.745Z,65.50
2017-07-09T10:34:54.265Z,65.50
2017-07-09T10:37:21.842Z,67.70
2017-07-09T10:39:51.167Z,66.00
2017-07-09T10:42:18.735Z,69.70
2017-07-09T10:44:46.335Z,69.90
2017-07-09T10:47:13.934Z,67.40
2017-07-09T10:49:41.513Z,69.20
2017-07-09T10:52:09.071Z,65.80
2017-07-09T10:54:36.725Z,64.30
2017-07-09T10:57:04.281Z,65.30
2017-07-09T10:59:31.861Z,64.70
2017-07-09T11:01:59.453Z,65.40
2017-07-09T11:04:27.910Z,65.80
2017-07-09T11:06:55.501Z,65.80
2017-07-09T11:09:23.116Z,66.00
2017-07-09T11:11:50.680Z,66.30
2017-07-09T11:14:18.247Z,65.40
2017-07-09T11:16:46.750Z,64.80
2017-07-09T11:19:14.333Z,64.70
2017-07-09T11:21:42.732Z,63.00
2017-07-09T11:24:10.400Z,63.00
2017-07-09T11:26:38.993Z,59.90
2017-07-09T11:29:06.546Z,57.80
2017-07-09T11:31:34.088Z,62.90
2017-07-09T11:34:01.676Z,58.80
2017-07-09T11:36:29.238Z,58.60
2017-07-09T11:38:56.764Z,58.00
2017-07-09T11:41:24.356Z,59.20
2017-07-09T11:43:52.009Z,58.00
2017-07-09T11:46:19.575Z,56.60
2017-07-09T11:48:47.906Z,54.80
2017-07-09T11:51:15.442Z,54.70
2017-07-09T11:53:43.022Z,57.80
2017-07-09T11:56:10.567Z,59.20
2017-07-09T11:58:38.088Z,56.50
2017-07-09T12:01:06.461Z,57.00
2017-07-09T12:03:34.777Z,56.60
2017-07-09T12:06:02.320Z,56.70
2017-07-09T12:08:29.939Z,55.50
2017-07-09T12:10:57.493Z,52.10
2017-07-09T12:13:25.057Z,54.20
2017-07-09T12:15:52.676Z,54.00
2017-07-09T12:18:20.242Z,54.60
2017-07-09T12:20:47.772Z,54.70
2017-07-09T12:23:15.357Z,53.30
2017-07-09T12:25:42.929Z,53.30
2017-07-09T12:28:10.485Z,54.10
2017-07-09T12:30:38.839Z,54.00
2017-07-09T12:33:06.376Z,55.40
2017-07-09T12:35:34.749Z,54.00
2017-07-09T12:38:02.288Z,51.50
2017-07-09T12:40:29.900Z,53.30
2017-07-09T12:42:57.474Z,51.10
2017-07-09T12:45:25.039Z,52.80
2017-07-09T12:47:52.619Z,55.10
2017-07-09T12:50:20.163Z,52.50
2017-07-09T12:52:47.679Z,52.70
2017-07-09T12:55:15.243Z,53.70
2017-07-09T12:57:42.823Z,53.90
2017-07-09T13:00:10.398Z,53.80
2017-07-09T13:02:37.960Z,54.80
2017-07-09T13:05:05.525Z,56.00
2017-07-09T13:07:33.100Z,54.80
2017-07-09T13:10:01.445Z,55.20
2017-07-09T13:12:29.022Z,55.20
2017-07-09T13:14:56.556Z,53.90
2017-07-09T13:17:24.080Z,54.60
2017-07-09T13:19:51.677Z,55.60
2017-07-09T13:22:19.214Z,54.00
2017-07-09T13:24:46.777Z,54.00
2017-07-09T13:27:14.393Z,56.30
2017-07-09T13:29:41.927Z,55.20
2017-07-09T13:32:10.229Z,56.50
2017-07-09T13:34:38.164Z,56.50
2017-07-09T13:37:05.733Z,56.50
2017-07-09T13:39:34.071Z,54.80
2017-07-09T13:42:01.670Z,54.80
2017-07-09T13:44:29.986Z,57.00
2017-07-09T13:46:57.520Z,57.00
2017-07-09T13:49:25.114Z,56.10
2017-07-09T13:51:52.642Z,55.30
2017-07-09T13:54:20.174Z,56.80
2017-07-09T13:56:48.526Z,56.70
2017-07-09T13:59:16.059Z,56.70
2017-07-09T14:01:43.593Z,56.70
2017-07-09T14:04:11.160Z,56.10
2017-07-09T14:06:38.704Z,53.40
2017-07-09T14:09:06.236Z,54.00
2017-07-09T14:11:34.559Z,54.30
2017-07-09T14:14:02.309Z,54.30
2017-07-09T14:16:29.870Z,54.10
2017-07-09T14:18:57.447Z,52.90
2017-07-09T14:21:24.999Z,54.10
2017-07-09T14:23:52.527Z,54.20
2017-07-09T14:26:20.078Z,52.60
2017-07-09T14:28:48.364Z,54.00
2017-07-09T14:31:15.954Z,53.90
2017-07-09T14:33:43.480Z,54.60
2017-07-09T14:36:11.016Z,55.80
2017-07-09T14:38:39.337Z,55.40
2017-07-09T14:41:06.895Z,55.20
2017-07-09T14:43:34.525Z,54.00
2017-07-09T14:46:02.056Z,53.40
2017-07-09T14:48:29.624Z,54.90
2017-07-09T14:50:57.902Z,56.30
2017-07-09T14:53:26.201Z,56.50
2017-07-09T14:55:53.769Z,56.40
2017-07-09T14:58:21.284Z,57.60
2017-07-09T15:00:48.844Z,56.70
2017-07-09T15:03:16.382Z,57.90
2017-07-09T15:05:43.916Z,57.30
2017-07-09T15:08:11.513Z,56.90
2017-07-09T15:10:39.044Z,59.40
2017-07-09T15:13:06.592Z,60.70
2017-07-09T15:15:34.157Z,63.40
2017-07-09T15:18:01.672Z,65.00
2017-07-09T15:20:29.194Z,64.50
2017-07-09T15:22:56.743Z,65.60
2017-07-09T15:25:24.315Z,58.90
2017-07-09T15:27:51.832Z,60.70
2017-07-09T15:30:19.353Z,61.70
2017-07-09T15:32:46.942Z,61.30
2017-07-09T15:35:14.494Z,60.90
2017-07-09T15:37:42.024Z,55.60
2017-07-09T15:40:09.636Z,57.40
2017-07-09T15:42:37.183Z,56.70
2017-07-09T15:45:04.713Z,58.60
2017-07-09T15:47:32.326Z,58.80
2017-07-09T15:49:59.872Z,60.50
2017-07-09T15:52:27.392Z,62.20
2017-07-09T15:54:54.962Z,65.80
2017-07-09T15:57:22.502Z,69.90
2017-07-09T15:59:50.026Z,74.10
2017-07-09T16:02:18.356Z,74.70
2017-07-09T16:04:45.912Z,74.50
2017-07-09T16:07:13.490Z,75.00
2017-07-09T16:09:41.026Z,76.10
2017-07-09T16:12:08.588Z,75.90
2017-07-09T16:14:36.167Z,76.10
2017-07-09T16:17:03.700Z,81.80
2017-07-09T16:19:31.233Z,80.70
2017-07-09T16:21:58.788Z,78.10
2017-07-09T16:24:26.325Z,77.70
2017-07-09T16:26:54.626Z,79.50
2017-07-09T16:29:22.182Z,79.30
2017-07-09T16:31:49.717Z,78.60
2017-07-09T16:34:18.069Z,80.10
2017-07-09T16:36:45.603Z,80.00
2017-07-09T16:39:13.129Z,82.90
2017-07-09T16:41:40.693Z,83.10
2017-07-09T16:44:08.249Z,81.10
2017-07-09T16:46:35.797Z,81.70
2017-07-09T16:49:03.376Z,82.10
2017-07-09T16:51:31.060Z,82.40
2017-07-09T16:53:58.582Z,83.30
2017-07-09T16:56:26.157Z,79.60
2017-07-09T16:58:53.704Z,81.70
2017-07-09T17:01:21.254Z,78.60
2017-07-09T17:03:49.122Z,78.90
2017-07-09T17:06:16.674Z,81.10
2017-07-09T17:08:44.223Z,82.40
2017-07-09T17:11:11.812Z,84.70
2017-07-09T17:13:39.412Z,84.30
2017-07-09T17:16:06.939Z,83.20
2017-07-09T17:18:34.460Z,82.50
2017-07-09T17:21:02.018Z,78.20
2017-07-09T17:23:29.536Z,81.10
2017-07-09T17:25:57.085Z,80.70
2017-07-09T17:28:24.646Z,82.20
2017-07-09T17:30:52.173Z,82.20
2017-07-09T17:33:19.766Z,81.70
2017-07-09T17:35:47.331Z,81.80
2017-07-09T17:38:14.877Z,80.00
2017-07-09T17:40:42.512Z,81.20
2017-07-09T17:43:10.055Z,80.60
2017-07-09T17:45:37.585Z,81.90
2017-07-09T17:48:05.171Z,83.60
2017-07-09T17:50:32.734Z,86.00
2017-07-09T17:53:00.276Z,83.30
2017-07-09T17:55:27.862Z,83.40
2017-07-09T17:57:55.422Z,82.90
2017-07-09T18:00:23.167Z,82.90
2017-07-09T18:02:50.692Z,85.10
2017-07-09T18:05:19.012Z,84.10
2017-07-09T18:07:46.589Z,83.90
2017-07-09T18:10:14.156Z,83.20
2017-07-09T18:12:41.691Z,83.60
2017-07-09T18:15:09.275Z,84.40
2017-07-09T18:17:36.809Z,85.50
2017-07-09T18:20:04.345Z,86.10
2017-07-09T18:22:31.904Z,87.00
2017-07-09T18:24:59.426Z,86.30
2017-07-09T18:27:27.765Z,87.10
2017-07-09T18:29:55.292Z,86.70
2017-07-09T18:32:22.832Z,86.90
2017-07-09T18:34:51.174Z,86.90
2017-07-09T18:37:18.722Z,86.90
2017-07-09T18:39:46.271Z,87.20
2017-07-09T18:42:13.865Z,87.50
2017-07-09T18:44:42.195Z,87.20
2017-07-09T18:47:09.728Z,87.10
2017-07-09T18:49:37.297Z,88.10
2017-07-09T18:52:04.828Z,87.40
2017-07-09T18:54:33.226Z,87.40
2017-07-09T18:57:00.749Z,87.20
2017-07-09T18:59:29.074Z,88.00
2017-07-09T19:01:56.657Z,87.90
2017-07-09T19:04:24.202Z,88.20
2017-07-09T19:06:51.790Z,88.10
2017-07-09T19:09:19.343Z,88.90
2017-07-09T19:11:46.873Z,88.80
2017-07-09T19:14:14.438Z,89.00
2017-07-09T19:16:41.982Z,88.00
2017-07-09T19:19:09.570Z,88.20
2017-07-09T19:21:37.117Z,87.60
2017-07-09T19:24:04.657Z,87.30
2017-07-09T19:26:32.222Z,87.50
2017-07-09T19:28:59.803Z,87.80
2017-07-09T19:31:27.348Z,88.30
2017-07-09T19:33:54.873Z,87.80
2017-07-09T19:36:22.449Z,87.60
2017-07-09T19:38:49.976Z,87.60
2017-07-09T19:41:17.545Z,88.20
2017-07-09T19:43:45.078Z,87.60
2017-07-09T19:46:13.368Z,87.00
2017-07-09T19:48:40.930Z,86.90
2017-07-09T19:51:08.477Z,87.30
2017-07-09T19:53:36.017Z,87.10
2017-07-09T19:56:03.599Z,88.10
2017-07-09T19:58:31.130Z,88.10
2017-07-09T20:00:59.435Z,88.00
2017-07-09T20:03:27.012Z,88.00
2017-07-09T20:05:54.577Z,87.70
2017-07-09T20:08:22.104Z,87.60
2017-07-09T20:10:49.665Z,87.40
2017-07-09T20:13:17.241Z,87.60
2017-07-09T20:15:44.807Z,88.70
2017-07-09T20:18:12.469Z,88.50
2017-07-09T20:20:40.048Z,88.50
2017-07-09T20:23:07.573Z,90.00
2017-07-09T20:25:35.101Z,90.20
2017-07-09T20:28:02.673Z,90.10
2017-07-09T20:30:30.209Z,89.20
2017-07-09T20:32:58.528Z,88.80
2017-07-09T20:35:26.089Z,88.60
2017-07-09T20:37:53.632Z,90.30
2017-07-09T20:40:21.300Z,90.30
2017-07-09T20:42:48.836Z,90.60
2017-07-09T20:45:16.376Z,91.40
2017-07-09T20:47:44.710Z,90.70
2017-07-09T20:50:12.287Z,90.60
2017-07-09T20:52:39.815Z,91.30
2017-07-09T20:55:07.342Z,90.90
2017-07-09T20:57:34.905Z,91.40
2017-07-09T21:00:02.447Z,90.50
2017-07-09T21:02:30.741Z,90.60
2017-07-09T21:04:58.297Z,90.60
2017-07-09T21:07:25.826Z,90.50
2017-07-09T21:09:54.147Z,90.80
2017-07-09T21:12:21.744Z,91.00
2017-07-09T21:14:49.313Z,91.30
2017-07-09T21:17:16.861Z,91.50
2017-07-09T21:19:44.446Z,91.50
2017-07-09T21:22:12.753Z,92.10
2017-07-09T21:24:40.436Z,92.10
2017-07-09T21:27:07.959Z,92.30
2017-07-09T21:29:35.505Z,92.60
2017-07-09T21:32:03.103Z,92.30
2017-07-09T21:34:30.640Z,91.80
2017-07-09T21:36:58.189Z,91.90
2017-07-09T21:39:25.760Z,91.70
2017-07-09T21:41:53.297Z,91.80
2017-07-09T21:44:20.829Z,91.40
2017-07-09T21:46:48.420Z,91.20
2017-07-09T21:49:15.961Z,91.10
2017-07-09T21:51:43.545Z,91.30
2017-07-09T21:54:11.174Z,91.10
2017-07-09T21:56:39.490Z,91.10
2017-07-09T21:59:07.033Z,91.10
2017-07-09T22:01:34.624Z,91.30
2017-07-09T22:04:02.170Z,91.00
2017-07-09T22:06:29.701Z,91.20
2017-07-09T22:08:57.261Z,91.50
2017-07-09T22:11:24.786Z,91.30
2017-07-09T22:13:52.366Z,90.50
2017-07-09T22:16:20.660Z,90.10
2017-07-09T22:18:48.180Z,90.00
2017-07-09T22:21:16.580Z,90.00
2017-07-09T22:23:44.112Z,90.00
2017-07-09T22:26:11.648Z,89.50
2017-07-09T22:28:39.222Z,88.70
2017-07-09T22:31:06.773Z,88.40
2017-07-09T22:33:34.304Z,89.10
2017-07-09T22:36:01.869Z,88.00
2017-07-09T22:38:29.415Z,89.20
2017-07-09T22:40:57.002Z,87.60
2017-07-09T22:43:24.538Z,87.30
2017-07-09T22:45:52.081Z,86.20
2017-07-09T22:48:19.656Z,87.10
2017-07-09T22:50:47.185Z,87.30
2017-07-09T22:53:14.720Z,87.30
2017-07-09T22:55:42.289Z,88.90
2017-07-09T22:58:09.826Z,89.20
2017-07-09T23:00:37.387Z,89.70
2017-07-09T23:03:05.692Z,89.60
2017-07-09T23:05:33.225Z,89.60
2017-07-09T23:08:01.557Z,90.40
2017-07-09T23:10:29.117Z,90.30
2017-07-09T23:12:56.661Z,90.00
2017-07-09T23:15:24.219Z,89.80
2017-07-09T23:17:51.805Z,89.50
2017-07-09T23:20:19.337Z,89.40
2017-07-09T23:22:46.864Z,87.90
2017-07-09T23:25:14.416Z,89.80
2017-07-09T23:27:41.973Z,89.00
2017-07-09T23:30:10.261Z,88.70
2017-07-09T23:32:37.814Z,88.60
2017-07-09T23:35:05.353Z,87.90
2017-07-09T23:37:33.701Z,89.60
2017-07-09T23:40:01.225Z,89.60
2017-07-09T23:42:28.758Z,87.90
2017-07-09T23:44:56.338Z,89.00
2017-07-09T23:47:23.870Z,90.20
2017-07-09T23:49:51.416Z,89.10
2017-07-09T23:52:19.758Z,89.70
2017-07-09T23:54:47.279Z,89.60
2017-07-09T23:57:14.864Z,88.90
2017-07-09T23:59:42.389Z,89.90
